sensor_id;sensor_type;location;lat;lon;timestamp;P1;durP1;ratioP1;P2;durP2;ratioP2
34236;SDS011;20501;45.956;13.632;2024-01-27T00:02:03;43.33;;;22.50;;
34236;SDS011;20501;45.956;13.632;2024-01-27T00:04:29;42.38;;;22.08;;
34236;SDS011;20501;45.956;13.632;2024-01-27T00:06:54;38.08;;;21.80;;
34236;SDS011;20501;45.956;13.632;2024-01-27T00:09:19;34.78;;;19.50;;
34236;SDS011;20501;45.956;13.632;2024-01-27T00:11:45;31.48;;;19.27;;
34236;SDS011;20501;45.956;13.632;2024-01-27T00:14:10;37.60;;;20.50;;
34236;SDS011;20501;45.956;13.632;2024-01-27T00:16:36;36.42;;;21.20;;
34236;SDS011;20501;45.956;13.632;2024-01-27T00:19:01;37.30;;;20.25;;
34236;SDS011;20501;45.956;13.632;2024-01-27T00:21:27;33.72;;;18.67;;
34236;SDS011;20501;45.956;13.632;2024-01-27T00:23:52;33.83;;;19.13;;
34236;SDS011;20501;45.956;13.632;2024-01-27T00:26:18;33.60;;;18.25;;
34236;SDS011;20501;45.956;13.632;2024-01-27T00:28:43;32.35;;;18.48;;
34236;SDS011;20501;45.956;13.632;2024-01-27T00:31:09;33.42;;;18.52;;
34236;SDS011;20501;45.956;13.632;2024-01-27T00:33:34;32.90;;;18.98;;
34236;SDS011;20501;45.956;13.632;2024-01-27T00:36:01;32.60;;;19.30;;
34236;SDS011;20501;45.956;13.632;2024-01-27T00:38:27;34.08;;;18.40;;
34236;SDS011;20501;45.956;13.632;2024-01-27T00:40:52;37.47;;;20.73;;
34236;SDS011;20501;45.956;13.632;2024-01-27T00:43:18;38.08;;;19.73;;
34236;SDS011;20501;45.956;13.632;2024-01-27T00:45:43;47.28;;;25.50;;
34236;SDS011;20501;45.956;13.632;2024-01-27T00:48:09;67.75;;;33.60;;
34236;SDS011;20501;45.956;13.632;2024-01-27T00:50:34;77.45;;;38.35;;
34236;SDS011;20501;45.956;13.632;2024-01-27T00:53:00;65.28;;;36.10;;
34236;SDS011;20501;45.956;13.632;2024-01-27T00:55:25;78.18;;;38.40;;
34236;SDS011;20501;45.956;13.632;2024-01-27T00:57:50;85.43;;;43.97;;
34236;SDS011;20501;45.956;13.632;2024-01-27T01:00:16;86.00;;;45.33;;
34236;SDS011;20501;45.956;13.632;2024-01-27T01:02:41;74.38;;;39.92;;
34236;SDS011;20501;45.956;13.632;2024-01-27T01:05:07;87.05;;;44.65;;
34236;SDS011;20501;45.956;13.632;2024-01-27T01:07:33;81.53;;;42.70;;
34236;SDS011;20501;45.956;13.632;2024-01-27T01:09:58;78.43;;;41.97;;
34236;SDS011;20501;45.956;13.632;2024-01-27T01:12:24;74.80;;;38.13;;
34236;SDS011;20501;45.956;13.632;2024-01-27T01:14:52;69.00;;;37.05;;
34236;SDS011;20501;45.956;13.632;2024-01-27T01:17:18;48.42;;;27.45;;
34236;SDS011;20501;45.956;13.632;2024-01-27T01:19:43;63.92;;;35.03;;
34236;SDS011;20501;45.956;13.632;2024-01-27T01:22:09;66.75;;;36.80;;
34236;SDS011;20501;45.956;13.632;2024-01-27T01:24:35;63.92;;;35.30;;
34236;SDS011;20501;45.956;13.632;2024-01-27T01:27:00;49.47;;;27.60;;
34236;SDS011;20501;45.956;13.632;2024-01-27T01:29:26;42.92;;;22.98;;
34236;SDS011;20501;45.956;13.632;2024-01-27T01:31:51;34.05;;;18.02;;
34236;SDS011;20501;45.956;13.632;2024-01-27T01:34:17;28.48;;;17.15;;
34236;SDS011;20501;45.956;13.632;2024-01-27T01:36:42;30.02;;;16.27;;
34236;SDS011;20501;45.956;13.632;2024-01-27T01:39:09;32.58;;;18.35;;
34236;SDS011;20501;45.956;13.632;2024-01-27T01:41:35;26.60;;;17.13;;
34236;SDS011;20501;45.956;13.632;2024-01-27T01:44:01;33.17;;;18.95;;
34236;SDS011;20501;45.956;13.632;2024-01-27T01:46:26;32.65;;;18.23;;
34236;SDS011;20501;45.956;13.632;2024-01-27T01:48:51;31.35;;;17.92;;
34236;SDS011;20501;45.956;13.632;2024-01-27T01:51:17;29.73;;;16.17;;
34236;SDS011;20501;45.956;13.632;2024-01-27T01:53:43;24.63;;;14.75;;
34236;SDS011;20501;45.956;13.632;2024-01-27T01:56:15;29.88;;;15.43;;
34236;SDS011;20501;45.956;13.632;2024-01-27T01:58:41;23.17;;;13.10;;
34236;SDS011;20501;45.956;13.632;2024-01-27T02:01:07;24.58;;;13.60;;
34236;SDS011;20501;45.956;13.632;2024-01-27T02:03:32;47.50;;;28.00;;
34236;SDS011;20501;45.956;13.632;2024-01-27T02:05:58;43.20;;;23.25;;
34236;SDS011;20501;45.956;13.632;2024-01-27T02:08:23;37.42;;;20.13;;
34236;SDS011;20501;45.956;13.632;2024-01-27T02:10:49;46.58;;;25.58;;
34236;SDS011;20501;45.956;13.632;2024-01-27T02:13:18;54.55;;;27.70;;
34236;SDS011;20501;45.956;13.632;2024-01-27T02:15:45;53.97;;;27.92;;
34236;SDS011;20501;45.956;13.632;2024-01-27T02:18:10;39.33;;;22.83;;
34236;SDS011;20501;45.956;13.632;2024-01-27T02:20:36;35.55;;;19.40;;
34236;SDS011;20501;45.956;13.632;2024-01-27T02:23:02;29.00;;;16.50;;
34236;SDS011;20501;45.956;13.632;2024-01-27T02:25:29;26.63;;;14.77;;
34236;SDS011;20501;45.956;13.632;2024-01-27T02:27:58;19.85;;;11.95;;
34236;SDS011;20501;45.956;13.632;2024-01-27T02:30:24;18.23;;;11.63;;
34236;SDS011;20501;45.956;13.632;2024-01-27T02:32:50;23.95;;;12.85;;
34236;SDS011;20501;45.956;13.632;2024-01-27T02:35:16;20.23;;;12.68;;
34236;SDS011;20501;45.956;13.632;2024-01-27T02:37:41;23.15;;;13.50;;
34236;SDS011;20501;45.956;13.632;2024-01-27T02:40:07;22.17;;;13.55;;
34236;SDS011;20501;45.956;13.632;2024-01-27T02:42:35;24.30;;;12.65;;
34236;SDS011;20501;45.956;13.632;2024-01-27T02:45:01;26.02;;;13.05;;
34236;SDS011;20501;45.956;13.632;2024-01-27T02:47:27;23.30;;;11.38;;
34236;SDS011;20501;45.956;13.632;2024-01-27T02:49:52;21.58;;;11.95;;
34236;SDS011;20501;45.956;13.632;2024-01-27T02:52:18;18.65;;;11.02;;
34236;SDS011;20501;45.956;13.632;2024-01-27T02:54:43;20.05;;;10.63;;
34236;SDS011;20501;45.956;13.632;2024-01-27T02:57:09;17.67;;;10.25;;
34236;SDS011;20501;45.956;13.632;2024-01-27T02:59:34;16.42;;;9.93;;
34236;SDS011;20501;45.956;13.632;2024-01-27T03:02:00;17.33;;;9.95;;
34236;SDS011;20501;45.956;13.632;2024-01-27T03:04:26;22.38;;;11.43;;
34236;SDS011;20501;45.956;13.632;2024-01-27T03:06:51;16.15;;;10.75;;
34236;SDS011;20501;45.956;13.632;2024-01-27T03:09:16;16.85;;;10.55;;
34236;SDS011;20501;45.956;13.632;2024-01-27T03:11:42;25.10;;;10.80;;
34236;SDS011;20501;45.956;13.632;2024-01-27T03:14:07;18.42;;;10.38;;
34236;SDS011;20501;45.956;13.632;2024-01-27T03:16:33;16.50;;;10.18;;
34236;SDS011;20501;45.956;13.632;2024-01-27T03:19:03;21.85;;;10.60;;
34236;SDS011;20501;45.956;13.632;2024-01-27T03:21:29;15.88;;;9.98;;
34236;SDS011;20501;45.956;13.632;2024-01-27T03:23:54;16.92;;;10.07;;
34236;SDS011;20501;45.956;13.632;2024-01-27T03:26:20;18.40;;;10.95;;
34236;SDS011;20501;45.956;13.632;2024-01-27T03:28:45;15.35;;;9.02;;
34236;SDS011;20501;45.956;13.632;2024-01-27T03:31:11;21.45;;;10.90;;
34236;SDS011;20501;45.956;13.632;2024-01-27T03:33:36;23.70;;;10.20;;
34236;SDS011;20501;45.956;13.632;2024-01-27T03:36:02;16.77;;;9.98;;
34236;SDS011;20501;45.956;13.632;2024-01-27T03:38:27;17.13;;;10.63;;
34236;SDS011;20501;45.956;13.632;2024-01-27T03:40:53;16.38;;;9.45;;
34236;SDS011;20501;45.956;13.632;2024-01-27T03:43:18;18.95;;;10.70;;
34236;SDS011;20501;45.956;13.632;2024-01-27T03:45:44;21.08;;;10.68;;
34236;SDS011;20501;45.956;13.632;2024-01-27T03:48:10;23.77;;;9.80;;
34236;SDS011;20501;45.956;13.632;2024-01-27T03:50:35;14.38;;;9.35;;
34236;SDS011;20501;45.956;13.632;2024-01-27T03:53:01;15.90;;;9.82;;
34236;SDS011;20501;45.956;13.632;2024-01-27T03:55:26;17.92;;;9.55;;
34236;SDS011;20501;45.956;13.632;2024-01-27T03:57:52;14.90;;;8.52;;
34236;SDS011;20501;45.956;13.632;2024-01-27T04:00:17;19.45;;;9.48;;
34236;SDS011;20501;45.956;13.632;2024-01-27T04:02:42;19.85;;;10.13;;
34236;SDS011;20501;45.956;13.632;2024-01-27T04:05:08;15.10;;;8.98;;
34236;SDS011;20501;45.956;13.632;2024-01-27T04:07:33;14.50;;;9.23;;
34236;SDS011;20501;45.956;13.632;2024-01-27T04:09:59;14.40;;;8.75;;
34236;SDS011;20501;45.956;13.632;2024-01-27T04:12:24;22.98;;;11.00;;
34236;SDS011;20501;45.956;13.632;2024-01-27T04:14:50;18.23;;;11.45;;
34236;SDS011;20501;45.956;13.632;2024-01-27T04:17:16;20.63;;;11.43;;
34236;SDS011;20501;45.956;13.632;2024-01-27T04:19:41;19.98;;;11.70;;
34236;SDS011;20501;45.956;13.632;2024-01-27T04:22:06;20.27;;;10.68;;
34236;SDS011;20501;45.956;13.632;2024-01-27T04:24:32;22.83;;;12.55;;
34236;SDS011;20501;45.956;13.632;2024-01-27T04:26:58;17.00;;;10.38;;
34236;SDS011;20501;45.956;13.632;2024-01-27T04:29:24;22.13;;;11.00;;
34236;SDS011;20501;45.956;13.632;2024-01-27T04:31:50;17.17;;;9.93;;
34236;SDS011;20501;45.956;13.632;2024-01-27T04:34:15;19.25;;;9.68;;
34236;SDS011;20501;45.956;13.632;2024-01-27T04:36:41;12.20;;;7.97;;
34236;SDS011;20501;45.956;13.632;2024-01-27T04:39:06;14.40;;;8.65;;
34236;SDS011;20501;45.956;13.632;2024-01-27T04:41:31;14.30;;;8.50;;
34236;SDS011;20501;45.956;13.632;2024-01-27T04:43:57;15.18;;;8.90;;
34236;SDS011;20501;45.956;13.632;2024-01-27T04:46:24;15.98;;;8.55;;
34236;SDS011;20501;45.956;13.632;2024-01-27T04:48:49;15.38;;;8.82;;
34236;SDS011;20501;45.956;13.632;2024-01-27T04:51:15;30.45;;;15.98;;
34236;SDS011;20501;45.956;13.632;2024-01-27T04:53:40;30.48;;;17.85;;
34236;SDS011;20501;45.956;13.632;2024-01-27T04:56:06;30.95;;;17.88;;
34236;SDS011;20501;45.956;13.632;2024-01-27T04:58:33;30.80;;;18.70;;
34236;SDS011;20501;45.956;13.632;2024-01-27T05:00:59;39.83;;;21.15;;
34236;SDS011;20501;45.956;13.632;2024-01-27T05:03:26;38.97;;;22.75;;
34236;SDS011;20501;45.956;13.632;2024-01-27T05:05:51;36.17;;;20.73;;
34236;SDS011;20501;45.956;13.632;2024-01-27T05:08:16;37.95;;;20.48;;
34236;SDS011;20501;45.956;13.632;2024-01-27T05:10:42;48.40;;;26.10;;
34236;SDS011;20501;45.956;13.632;2024-01-27T05:13:07;45.15;;;24.70;;
34236;SDS011;20501;45.956;13.632;2024-01-27T05:15:33;47.03;;;26.73;;
34236;SDS011;20501;45.956;13.632;2024-01-27T05:17:58;45.20;;;25.17;;
34236;SDS011;20501;45.956;13.632;2024-01-27T05:20:23;46.03;;;25.02;;
34236;SDS011;20501;45.956;13.632;2024-01-27T05:22:49;48.97;;;27.63;;
34236;SDS011;20501;45.956;13.632;2024-01-27T05:25:14;58.83;;;30.83;;
34236;SDS011;20501;45.956;13.632;2024-01-27T05:30:07;50.45;;;28.90;;
34236;SDS011;20501;45.956;13.632;2024-01-27T05:32:33;41.93;;;23.63;;
34236;SDS011;20501;45.956;13.632;2024-01-27T05:34:58;30.38;;;16.70;;
34236;SDS011;20501;45.956;13.632;2024-01-27T05:37:24;16.58;;;10.13;;
34236;SDS011;20501;45.956;13.632;2024-01-27T05:39:49;16.83;;;10.73;;
34236;SDS011;20501;45.956;13.632;2024-01-27T05:42:15;18.77;;;10.55;;
34236;SDS011;20501;45.956;13.632;2024-01-27T05:44:40;14.68;;;8.90;;
34236;SDS011;20501;45.956;13.632;2024-01-27T05:47:06;17.77;;;9.10;;
34236;SDS011;20501;45.956;13.632;2024-01-27T05:49:32;17.73;;;8.95;;
34236;SDS011;20501;45.956;13.632;2024-01-27T05:51:57;13.85;;;8.20;;
34236;SDS011;20501;45.956;13.632;2024-01-27T05:54:24;20.13;;;9.80;;
34236;SDS011;20501;45.956;13.632;2024-01-27T05:56:49;41.10;;;20.13;;
34236;SDS011;20501;45.956;13.632;2024-01-27T05:59:15;44.35;;;25.58;;
34236;SDS011;20501;45.956;13.632;2024-01-27T06:01:40;50.70;;;28.38;;
34236;SDS011;20501;45.956;13.632;2024-01-27T06:04:08;47.67;;;27.30;;
34236;SDS011;20501;45.956;13.632;2024-01-27T06:06:34;50.58;;;28.60;;
34236;SDS011;20501;45.956;13.632;2024-01-27T06:08:59;52.08;;;30.00;;
34236;SDS011;20501;45.956;13.632;2024-01-27T06:11:25;55.45;;;28.98;;
34236;SDS011;20501;45.956;13.632;2024-01-27T06:13:51;52.83;;;29.13;;
34236;SDS011;20501;45.956;13.632;2024-01-27T06:16:19;35.05;;;20.27;;
34236;SDS011;20501;45.956;13.632;2024-01-27T06:18:45;27.23;;;13.27;;
34236;SDS011;20501;45.956;13.632;2024-01-27T06:21:10;31.15;;;13.80;;
34236;SDS011;20501;45.956;13.632;2024-01-27T06:23:36;18.15;;;10.63;;
34236;SDS011;20501;45.956;13.632;2024-01-27T06:26:08;25.88;;;13.02;;
34236;SDS011;20501;45.956;13.632;2024-01-27T06:28:34;23.95;;;12.82;;
34236;SDS011;20501;45.956;13.632;2024-01-27T06:31:02;29.88;;;12.02;;
34236;SDS011;20501;45.956;13.632;2024-01-27T06:33:28;23.35;;;10.80;;
34236;SDS011;20501;45.956;13.632;2024-01-27T06:35:54;14.25;;;8.23;;
34236;SDS011;20501;45.956;13.632;2024-01-27T06:38:19;13.52;;;8.65;;
34236;SDS011;20501;45.956;13.632;2024-01-27T06:40:45;13.43;;;8.23;;
34236;SDS011;20501;45.956;13.632;2024-01-27T06:43:13;15.70;;;8.68;;
34236;SDS011;20501;45.956;13.632;2024-01-27T06:45:39;15.57;;;8.32;;
34236;SDS011;20501;45.956;13.632;2024-01-27T06:48:05;17.48;;;7.90;;
34236;SDS011;20501;45.956;13.632;2024-01-27T06:50:31;16.38;;;7.85;;
34236;SDS011;20501;45.956;13.632;2024-01-27T06:52:57;14.60;;;8.40;;
34236;SDS011;20501;45.956;13.632;2024-01-27T06:55:22;13.50;;;8.35;;
34236;SDS011;20501;45.956;13.632;2024-01-27T06:57:48;16.75;;;8.50;;
34236;SDS011;20501;45.956;13.632;2024-01-27T07:00:13;14.25;;;8.60;;
34236;SDS011;20501;45.956;13.632;2024-01-27T07:02:40;12.80;;;8.25;;
34236;SDS011;20501;45.956;13.632;2024-01-27T07:07:32;12.05;;;7.75;;
34236;SDS011;20501;45.956;13.632;2024-01-27T07:09:58;15.23;;;8.18;;
34236;SDS011;20501;45.956;13.632;2024-01-27T07:12:23;20.23;;;7.88;;
34236;SDS011;20501;45.956;13.632;2024-01-27T07:14:49;15.80;;;7.82;;
34236;SDS011;20501;45.956;13.632;2024-01-27T07:17:14;14.50;;;7.78;;
34236;SDS011;20501;45.956;13.632;2024-01-27T07:19:40;11.57;;;7.32;;
34236;SDS011;20501;45.956;13.632;2024-01-27T07:22:05;15.23;;;8.15;;
34236;SDS011;20501;45.956;13.632;2024-01-27T07:24:31;14.13;;;8.27;;
34236;SDS011;20501;45.956;13.632;2024-01-27T07:26:56;23.10;;;12.98;;
34236;SDS011;20501;45.956;13.632;2024-01-27T07:29:23;13.13;;;7.85;;
34236;SDS011;20501;45.956;13.632;2024-01-27T07:31:49;10.77;;;7.57;;
34236;SDS011;20501;45.956;13.632;2024-01-27T07:34:14;14.95;;;7.80;;
34236;SDS011;20501;45.956;13.632;2024-01-27T07:36:40;13.98;;;7.25;;
34236;SDS011;20501;45.956;13.632;2024-01-27T07:39:06;12.48;;;8.10;;
34236;SDS011;20501;45.956;13.632;2024-01-27T07:41:31;15.15;;;7.75;;
34236;SDS011;20501;45.956;13.632;2024-01-27T07:43:57;11.05;;;7.57;;
34236;SDS011;20501;45.956;13.632;2024-01-27T07:46:22;13.80;;;7.03;;
34236;SDS011;20501;45.956;13.632;2024-01-27T07:48:50;16.25;;;7.40;;
34236;SDS011;20501;45.956;13.632;2024-01-27T07:51:16;12.85;;;7.65;;
34236;SDS011;20501;45.956;13.632;2024-01-27T07:53:41;11.82;;;7.70;;
34236;SDS011;20501;45.956;13.632;2024-01-27T07:56:07;13.60;;;7.47;;
34236;SDS011;20501;45.956;13.632;2024-01-27T07:58:33;13.85;;;7.75;;
34236;SDS011;20501;45.956;13.632;2024-01-27T08:00:59;15.85;;;7.80;;
34236;SDS011;20501;45.956;13.632;2024-01-27T08:03:25;15.90;;;8.88;;
34236;SDS011;20501;45.956;13.632;2024-01-27T08:05:50;13.65;;;8.35;;
34236;SDS011;20501;45.956;13.632;2024-01-27T08:08:16;13.32;;;8.25;;
34236;SDS011;20501;45.956;13.632;2024-01-27T08:10:41;11.02;;;6.63;;
34236;SDS011;20501;45.956;13.632;2024-01-27T08:13:06;11.77;;;7.20;;
34236;SDS011;20501;45.956;13.632;2024-01-27T08:15:33;8.10;;;6.05;;
34236;SDS011;20501;45.956;13.632;2024-01-27T08:17:58;9.60;;;6.07;;
34236;SDS011;20501;45.956;13.632;2024-01-27T08:20:23;15.63;;;8.52;;
34236;SDS011;20501;45.956;13.632;2024-01-27T08:22:49;11.23;;;7.43;;
34236;SDS011;20501;45.956;13.632;2024-01-27T08:27:41;16.58;;;7.55;;
34236;SDS011;20501;45.956;13.632;2024-01-27T08:30:07;16.25;;;11.25;;
34236;SDS011;20501;45.956;13.632;2024-01-27T08:32:33;9.35;;;6.25;;
34236;SDS011;20501;45.956;13.632;2024-01-27T08:34:59;10.97;;;7.17;;
34236;SDS011;20501;45.956;13.632;2024-01-27T08:37:25;10.32;;;6.70;;
34236;SDS011;20501;45.956;13.632;2024-01-27T08:39:51;12.05;;;6.00;;
34236;SDS011;20501;45.956;13.632;2024-01-27T08:42:16;11.05;;;6.40;;
34236;SDS011;20501;45.956;13.632;2024-01-27T08:44:42;8.70;;;6.15;;
34236;SDS011;20501;45.956;13.632;2024-01-27T08:47:07;11.43;;;8.23;;
34236;SDS011;20501;45.956;13.632;2024-01-27T08:49:33;13.70;;;9.18;;
34236;SDS011;20501;45.956;13.632;2024-01-27T08:51:58;20.55;;;9.95;;
34236;SDS011;20501;45.956;13.632;2024-01-27T08:54:24;13.88;;;7.45;;
34236;SDS011;20501;45.956;13.632;2024-01-27T08:56:49;20.77;;;8.00;;
34236;SDS011;20501;45.956;13.632;2024-01-27T08:59:15;11.65;;;7.15;;
34236;SDS011;20501;45.956;13.632;2024-01-27T09:01:41;8.75;;;6.13;;
34236;SDS011;20501;45.956;13.632;2024-01-27T09:04:07;11.77;;;6.50;;
34236;SDS011;20501;45.956;13.632;2024-01-27T09:06:34;11.85;;;7.13;;
34236;SDS011;20501;45.956;13.632;2024-01-27T09:08:59;10.63;;;6.97;;
34236;SDS011;20501;45.956;13.632;2024-01-27T09:11:26;11.50;;;6.88;;
34236;SDS011;20501;45.956;13.632;2024-01-27T09:13:55;9.68;;;6.40;;
34236;SDS011;20501;45.956;13.632;2024-01-27T09:16:21;10.90;;;6.97;;
34236;SDS011;20501;45.956;13.632;2024-01-27T09:18:47;8.48;;;6.60;;
34236;SDS011;20501;45.956;13.632;2024-01-27T09:21:14;12.77;;;7.45;;
34236;SDS011;20501;45.956;13.632;2024-01-27T09:23:45;12.88;;;6.40;;
34236;SDS011;20501;45.956;13.632;2024-01-27T09:26:11;18.60;;;7.80;;
34236;SDS011;20501;45.956;13.632;2024-01-27T09:28:37;13.50;;;9.00;;
34236;SDS011;20501;45.956;13.632;2024-01-27T09:31:02;16.40;;;12.48;;
34236;SDS011;20501;45.956;13.632;2024-01-27T09:33:28;22.17;;;16.03;;
34236;SDS011;20501;45.956;13.632;2024-01-27T09:35:54;21.60;;;15.98;;
34236;SDS011;20501;45.956;13.632;2024-01-27T09:38:20;24.00;;;15.77;;
34236;SDS011;20501;45.956;13.632;2024-01-27T09:40:46;20.40;;;14.90;;
34236;SDS011;20501;45.956;13.632;2024-01-27T09:43:12;24.87;;;16.23;;
34236;SDS011;20501;45.956;13.632;2024-01-27T09:45:39;22.67;;;17.27;;
34236;SDS011;20501;45.956;13.632;2024-01-27T09:48:05;23.83;;;17.47;;
34236;SDS011;20501;45.956;13.632;2024-01-27T09:50:34;26.98;;;16.50;;
34236;SDS011;20501;45.956;13.632;2024-01-27T09:52:59;22.97;;;16.07;;
34236;SDS011;20501;45.956;13.632;2024-01-27T09:55:25;22.42;;;16.75;;
34236;SDS011;20501;45.956;13.632;2024-01-27T09:57:51;24.90;;;16.53;;
34236;SDS011;20501;45.956;13.632;2024-01-27T10:00:19;22.13;;;15.73;;
34236;SDS011;20501;45.956;13.632;2024-01-27T10:02:45;20.98;;;16.65;;
34236;SDS011;20501;45.956;13.632;2024-01-27T10:05:11;23.35;;;15.98;;
34236;SDS011;20501;45.956;13.632;2024-01-27T10:07:37;24.63;;;17.17;;
34236;SDS011;20501;45.956;13.632;2024-01-27T10:10:04;25.13;;;15.68;;
34236;SDS011;20501;45.956;13.632;2024-01-27T10:12:31;24.50;;;15.18;;
34236;SDS011;20501;45.956;13.632;2024-01-27T10:17:23;26.10;;;13.93;;
34236;SDS011;20501;45.956;13.632;2024-01-27T10:20:03;22.63;;;14.00;;
34236;SDS011;20501;45.956;13.632;2024-01-27T10:22:39;23.38;;;14.50;;
34236;SDS011;20501;45.956;13.632;2024-01-27T10:25:05;22.45;;;14.98;;
34236;SDS011;20501;45.956;13.632;2024-01-27T10:27:32;22.65;;;15.35;;
34236;SDS011;20501;45.956;13.632;2024-01-27T10:29:58;21.87;;;15.73;;
34236;SDS011;20501;45.956;13.632;2024-01-27T10:32:23;22.57;;;16.13;;
34236;SDS011;20501;45.956;13.632;2024-01-27T10:37:46;23.10;;;14.33;;
34236;SDS011;20501;45.956;13.632;2024-01-27T10:40:16;19.90;;;14.80;;
34236;SDS011;20501;45.956;13.632;2024-01-27T10:42:43;18.55;;;13.90;;
34236;SDS011;20501;45.956;13.632;2024-01-27T10:45:09;22.45;;;13.85;;
34236;SDS011;20501;45.956;13.632;2024-01-27T10:47:36;25.33;;;14.75;;
34236;SDS011;20501;45.956;13.632;2024-01-27T10:50:04;19.30;;;14.38;;
34236;SDS011;20501;45.956;13.632;2024-01-27T10:52:34;20.13;;;13.50;;
34236;SDS011;20501;45.956;13.632;2024-01-27T10:55:04;17.02;;;12.77;;
34236;SDS011;20501;45.956;13.632;2024-01-27T10:57:35;15.02;;;11.75;;
34236;SDS011;20501;45.956;13.632;2024-01-27T11:00:02;19.17;;;12.38;;
34236;SDS011;20501;45.956;13.632;2024-01-27T11:02:36;19.77;;;12.10;;
34236;SDS011;20501;45.956;13.632;2024-01-27T11:05:02;17.17;;;12.43;;
34236;SDS011;20501;45.956;13.632;2024-01-27T11:07:32;19.55;;;13.27;;
34236;SDS011;20501;45.956;13.632;2024-01-27T11:09:58;21.30;;;13.32;;
34236;SDS011;20501;45.956;13.632;2024-01-27T11:12:24;18.70;;;13.23;;
34236;SDS011;20501;45.956;13.632;2024-01-27T11:14:50;19.17;;;13.32;;
34236;SDS011;20501;45.956;13.632;2024-01-27T11:17:16;21.38;;;12.85;;
34236;SDS011;20501;45.956;13.632;2024-01-27T11:19:44;22.02;;;12.85;;
34236;SDS011;20501;45.956;13.632;2024-01-27T11:22:23;17.83;;;12.32;;
34236;SDS011;20501;45.956;13.632;2024-01-27T11:24:53;21.23;;;13.35;;
34236;SDS011;20501;45.956;13.632;2024-01-27T11:27:30;17.17;;;11.80;;
34236;SDS011;20501;45.956;13.632;2024-01-27T11:29:55;19.53;;;12.03;;
34236;SDS011;20501;45.956;13.632;2024-01-27T11:32:21;20.90;;;11.03;;
34236;SDS011;20501;45.956;13.632;2024-01-27T11:34:47;18.03;;;11.33;;
34236;SDS011;20501;45.956;13.632;2024-01-27T11:37:14;16.17;;;9.70;;
34236;SDS011;20501;45.956;13.632;2024-01-27T11:39:40;17.83;;;10.23;;
34236;SDS011;20501;45.956;13.632;2024-01-27T11:42:06;27.17;;;10.87;;
34236;SDS011;20501;45.956;13.632;2024-01-27T11:44:33;17.52;;;9.20;;
34236;SDS011;20501;45.956;13.632;2024-01-27T11:47:02;20.67;;;9.38;;
34236;SDS011;20501;45.956;13.632;2024-01-27T11:49:28;15.35;;;9.32;;
34236;SDS011;20501;45.956;13.632;2024-01-27T11:51:54;11.97;;;7.27;;
34236;SDS011;20501;45.956;13.632;2024-01-27T11:54:20;8.00;;;5.20;;
34236;SDS011;20501;45.956;13.632;2024-01-27T11:56:45;9.77;;;6.10;;
34236;SDS011;20501;45.956;13.632;2024-01-27T11:59:11;8.83;;;5.90;;
34236;SDS011;20501;45.956;13.632;2024-01-27T12:01:37;9.33;;;6.17;;
34236;SDS011;20501;45.956;13.632;2024-01-27T12:04:06;15.45;;;7.28;;
34236;SDS011;20501;45.956;13.632;2024-01-27T12:06:32;7.32;;;5.38;;
34236;SDS011;20501;45.956;13.632;2024-01-27T12:08:58;8.43;;;4.67;;
34236;SDS011;20501;45.956;13.632;2024-01-27T12:11:24;10.87;;;4.83;;
34236;SDS011;20501;45.956;13.632;2024-01-27T12:13:50;7.85;;;4.45;;
34236;SDS011;20501;45.956;13.632;2024-01-27T12:16:16;6.63;;;4.93;;
34236;SDS011;20501;45.956;13.632;2024-01-27T12:18:43;9.97;;;4.77;;
34236;SDS011;20501;45.956;13.632;2024-01-27T12:23:34;23.23;;;5.87;;
34236;SDS011;20501;45.956;13.632;2024-01-27T12:26:00;6.60;;;4.37;;
34236;SDS011;20501;45.956;13.632;2024-01-27T12:28:26;7.73;;;4.17;;
34236;SDS011;20501;45.956;13.632;2024-01-27T12:30:52;7.28;;;4.70;;
34236;SDS011;20501;45.956;13.632;2024-01-27T12:33:19;5.75;;;3.92;;
34236;SDS011;20501;45.956;13.632;2024-01-27T12:35:49;7.60;;;3.20;;
34236;SDS011;20501;45.956;13.632;2024-01-27T12:38:19;6.82;;;3.63;;
34236;SDS011;20501;45.956;13.632;2024-01-27T12:40:45;5.28;;;3.55;;
34236;SDS011;20501;45.956;13.632;2024-01-27T12:43:10;7.70;;;3.67;;
34236;SDS011;20501;45.956;13.632;2024-01-27T12:45:35;7.72;;;3.63;;
34236;SDS011;20501;45.956;13.632;2024-01-27T12:48:01;4.45;;;3.40;;
34236;SDS011;20501;45.956;13.632;2024-01-27T12:50:27;7.40;;;4.40;;
34236;SDS011;20501;45.956;13.632;2024-01-27T12:52:53;4.80;;;3.58;;
34236;SDS011;20501;45.956;13.632;2024-01-27T12:55:19;5.80;;;3.25;;
34236;SDS011;20501;45.956;13.632;2024-01-27T12:57:46;5.25;;;2.83;;
34236;SDS011;20501;45.956;13.632;2024-01-27T13:00:12;5.75;;;3.25;;
34236;SDS011;20501;45.956;13.632;2024-01-27T13:02:39;6.25;;;3.70;;
34236;SDS011;20501;45.956;13.632;2024-01-27T13:05:05;10.63;;;3.38;;
34236;SDS011;20501;45.956;13.632;2024-01-27T13:07:30;4.47;;;3.10;;
34236;SDS011;20501;45.956;13.632;2024-01-27T13:09:56;5.65;;;3.33;;
34236;SDS011;20501;45.956;13.632;2024-01-27T13:12:22;7.55;;;2.80;;
34236;SDS011;20501;45.956;13.632;2024-01-27T13:14:47;9.38;;;3.47;;
34236;SDS011;20501;45.956;13.632;2024-01-27T13:17:14;7.10;;;3.20;;
34236;SDS011;20501;45.956;13.632;2024-01-27T13:19:40;4.82;;;2.90;;
34236;SDS011;20501;45.956;13.632;2024-01-27T13:22:06;10.40;;;3.33;;
34236;SDS011;20501;45.956;13.632;2024-01-27T13:24:31;6.28;;;3.22;;
34236;SDS011;20501;45.956;13.632;2024-01-27T13:26:57;4.20;;;2.65;;
34236;SDS011;20501;45.956;13.632;2024-01-27T13:29:23;4.97;;;2.83;;
34236;SDS011;20501;45.956;13.632;2024-01-27T13:31:49;3.85;;;2.50;;
34236;SDS011;20501;45.956;13.632;2024-01-27T13:34:14;4.95;;;3.00;;
34236;SDS011;20501;45.956;13.632;2024-01-27T13:36:40;6.20;;;2.95;;
34236;SDS011;20501;45.956;13.632;2024-01-27T13:39:05;5.30;;;2.90;;
34236;SDS011;20501;45.956;13.632;2024-01-27T13:41:31;4.53;;;3.03;;
34236;SDS011;20501;45.956;13.632;2024-01-27T13:43:56;5.45;;;3.10;;
34236;SDS011;20501;45.956;13.632;2024-01-27T13:46:22;16.80;;;10.07;;
34236;SDS011;20501;45.956;13.632;2024-01-27T13:48:48;8.07;;;4.97;;
34236;SDS011;20501;45.956;13.632;2024-01-27T13:51:14;6.70;;;3.95;;
34236;SDS011;20501;45.956;13.632;2024-01-27T13:53:39;4.70;;;3.00;;
34236;SDS011;20501;45.956;13.632;2024-01-27T13:56:05;8.30;;;4.25;;
34236;SDS011;20501;45.956;13.632;2024-01-27T13:58:31;5.97;;;3.93;;
34236;SDS011;20501;45.956;13.632;2024-01-27T14:00:57;6.87;;;3.50;;
34236;SDS011;20501;45.956;13.632;2024-01-27T14:03:23;6.53;;;3.25;;
34236;SDS011;20501;45.956;13.632;2024-01-27T14:05:49;19.80;;;10.55;;
34236;SDS011;20501;45.956;13.632;2024-01-27T14:08:14;12.68;;;4.93;;
34236;SDS011;20501;45.956;13.632;2024-01-27T14:10:40;7.28;;;4.35;;
34236;SDS011;20501;45.956;13.632;2024-01-27T14:13:08;4.57;;;3.08;;
34236;SDS011;20501;45.956;13.632;2024-01-27T14:15:38;5.88;;;2.97;;
34236;SDS011;20501;45.956;13.632;2024-01-27T14:18:03;6.85;;;2.85;;
34236;SDS011;20501;45.956;13.632;2024-01-27T14:20:31;5.15;;;3.28;;
34236;SDS011;20501;45.956;13.632;2024-01-27T14:22:58;6.88;;;3.33;;
34236;SDS011;20501;45.956;13.632;2024-01-27T14:25:24;4.93;;;3.28;;